KCYS/CYS METAR and TAF weather

Enter ICAO airport designator
Station Type Date Time Source
KCYS METAR 2021/01/16 01:53 UTC NOAA

KCYS 160153Z 31012G24KT 10SM CLR 03/M11 A3006 RMK AO2 PK WND 33029/0058 SLP205 T00281111 $


Station Type Date Time Source
KCYS Decoded METAR 2021/01/16 01:53 UTC NOAA

CHEYENNE AIRPORT, WY, United States (KCYS) 41-09N 104-48W 1865M
Jan 15, 2021 - 08:53 PM EST / 2021.01.16 0153 UTC
Wind: from the NW (310 degrees) at 14 MPH (12 KT) gusting to 28 MPH (24 KT):0
Visibility: 10 mile(s):0
Sky conditions: clear
Temperature: 37.0 F (2.8 C)
Dew Point: 12.0 F (-11.1 C)
Relative Humidity: 35%
Pressure (altimeter): 30.06 in. Hg (1017 hPa)
ob: KCYS 160153Z 31012G24KT 10SM CLR 03/M11 A3006 RMK AO2 PK WND 33029/0058 SLP205 T00281111
cycle: 2

Station Type Date Time Source
KCYS TAF 2021/01/15 18:36 UTC NOAA

TAF KCYS 151734Z 1518/1618 34030G44KT P6SM FEW250
FM152200 32024G32KT P6SM SKC
FM160000 32015G23KT P6SM SKC WS020/32050KT
FM160200 29016KT P6SM SKC
FM160800 32016G24KT P6SM OVC080

Example: see airport list